Time;durP1;ratioP1;P1;durP2;ratioP2;P2;SDS_P1;SDS_P2;PMS_P1;PMS_P2;Temp;Humidity;BMP_temperature;BMP_pressure;BME280_temperature;BME280_humidity;BME280_pressure;Samples;Min_cycle;Max_cycle;Signal;HPM_P1;HPM_P2
2022/10/30 00:04:31;;;;;;;15.70;12.40;;;18.00;53.30;;;;;;2617469;39;20181;-76
2022/10/30 00:10:18;;;;;;;13.10;11.90;;;17.90;54.40;;;;;;2615475;54;20370;-77
2022/10/30 00:16:08;;;;;;;18.47;12.97;;;17.50;60.20;;;;;;2616439;39;20499;-78
2022/10/30 00:21:56;;;;;;;15.63;12.03;;;17.60;58.00;;;;;;2614916;54;21062;-77
2022/10/30 00:27:44;;;;;;;17.23;11.40;;;17.80;57.00;;;;;;2616425;54;20414;-77
2022/10/30 00:33:31;;;;;;;11.63;10.63;;;17.70;57.90;;;;;;2616832;54;20135;-78
2022/10/30 00:39:19;;;;;;;12.77;11.67;;;17.60;60.00;;;;;;2614830;54;20830;-77
2022/10/30 00:45:11;;;;;;;13.40;12.10;;;17.50;61.40;;;;;;2614854;54;20175;-77
2022/10/30 00:51:02;;;;;;;13.33;12.10;;;17.50;63.70;;;;;;2615664;54;20969;-77
2022/10/30 00:56:50;;;;;;;12.50;11.43;;;17.20;68.20;;;;;;2616125;54;20387;-77
2022/10/30 01:02:40;;;;;;;12.43;11.13;;;17.20;69.30;;;;;;2617031;54;20420;-78
2022/10/30 01:11:49;;;;;;;14.40;12.10;;;17.10;72.70;;;;;;2617129;54;20419;-79
2022/10/30 01:17:54;;;;;;;12.67;11.33;;;17.10;74.50;;;;;;2616510;54;20138;-79
2022/10/30 01:37:04;;;;;;;14.07;11.27;;;16.10;99.90;;;;;;2614576;54;20399;-79
2022/10/30 01:42:57;;;;;;;12.00;10.90;;;16.80;94.30;;;;;;2616212;54;20379;-79
2022/10/30 01:49:05;;;;;;;11.73;10.73;;;16.50;97.00;;;;;;2615566;54;20461;-79
2022/10/30 02:01:32;;;;;;;12.40;11.10;;;16.30;99.90;;;;;;2616081;54;21012;-78
2022/10/30 02:07:20;;;;;;;11.90;10.33;;;15.80;99.90;;;;;;2617134;54;20395;-78
2022/10/30 02:13:08;;;;;;;11.43;10.33;;;15.80;99.90;;;;;;2616876;54;20126;-76
2022/10/30 02:18:56;;;;;;;16.17;10.30;;;15.50;99.90;;;;;;2617064;54;20416;-77
2022/10/30 02:24:44;;;;;;;14.87;9.90;;;16.00;99.90;;;;;;2617192;54;20178;-78
2022/10/30 02:30:32;;;;;;;13.50;10.30;;;15.60;99.90;;;;;;2615636;54;20125;-77
2022/10/30 02:36:19;;;;;;;10.90;9.77;;;16.00;99.90;;;;;;2615655;54;20129;-79
2022/10/30 02:42:07;;;;;;;11.47;10.33;;;16.70;99.90;;;;;;2616708;54;20220;-79
2022/10/30 02:47:55;;;;;;;12.00;10.80;;;15.90;99.90;;;;;;2613738;54;20178;-79
2022/10/30 02:53:43;;;;;;;11.30;10.40;;;15.80;99.90;;;;;;2616007;54;20194;-79
2022/10/30 02:59:31;;;;;;;16.23;11.80;;;16.10;99.90;;;;;;2615906;54;20387;-78
2022/10/30 03:05:18;;;;;;;12.93;11.20;;;15.50;99.90;;;;;;2616249;54;20138;-79
2022/10/30 03:11:09;;;;;;;11.17;10.00;;;15.10;99.90;;;;;;2616553;54;20146;-77
2022/10/30 03:16:57;;;;;;;19.83;11.57;;;14.90;99.90;;;;;;2616886;54;20410;-77
2022/10/30 03:22:45;;;;;;;16.13;11.70;;;14.70;99.90;;;;;;2615419;54;20146;-78
2022/10/30 03:28:34;;;;;;;11.87;10.60;;;14.70;99.90;;;;;;2617160;54;20135;-78
2022/10/30 03:34:22;;;;;;;16.17;9.77;;;14.60;99.90;;;;;;2617250;39;20710;-80
2022/10/30 03:40:10;;;;;;;14.00;10.40;;;14.80;99.90;;;;;;2615025;54;20143;-78
2022/10/30 03:45:58;;;;;;;13.23;9.60;;;15.10;99.90;;;;;;2617005;54;20399;-77
2022/10/30 03:51:46;;;;;;;16.33;10.40;;;15.40;99.90;;;;;;2617608;54;20395;-78
2022/10/30 03:57:37;;;;;;;15.20;10.77;;;15.30;99.90;;;;;;2616356;54;20166;-79
2022/10/30 04:03:25;;;;;;;25.20;18.63;;;14.80;99.90;;;;;;2616838;54;20398;-77
2022/10/30 04:05:52;;;;;;;18.20;12.30;;;14.80;99.90;;;;;;2616231;50;21282;-77
2022/10/30 04:12:33;;;;;;;12.60;11.03;;;14.70;99.90;;;;;;2617076;54;20410;-77
2022/10/30 04:18:21;;;;;;;13.37;11.70;;;14.30;99.90;;;;;;2616690;54;20923;-78
2022/10/30 04:24:09;;;;;;;12.80;11.43;;;14.00;99.90;;;;;;2613029;54;20360;-77
2022/10/30 04:29:56;;;;;;;29.30;12.17;;;13.80;99.90;;;;;;2615041;54;20221;-77
2022/10/30 04:35:44;;;;;;;13.07;9.90;;;13.60;99.90;;;;;;2616934;54;20219;-78
2022/10/30 04:41:32;;;;;;;13.23;11.83;;;13.50;99.90;;;;;;2616370;54;20661;-77
2022/10/30 04:47:20;;;;;;;13.00;10.80;;;13.40;99.90;;;;;;2616035;54;20150;-78
2022/10/30 04:53:13;;;;;;;12.57;10.87;;;13.70;99.90;;;;;;2617601;54;20219;-78
2022/10/30 04:59:00;;;;;;;17.60;11.77;;;13.40;99.90;;;;;;2616022;54;20446;-78
2022/10/30 05:04:47;;;;;;;13.80;10.27;;;13.20;99.90;;;;;;2616557;54;20154;-78
2022/10/30 05:08:02;;;;;;;12.70;10.90;;;13.20;99.90;;;;;;2615655;54;20412;-78
2022/10/30 05:10:28;;;;;;;12.83;10.00;;;13.20;99.90;;;;;;2616330;47;20703;-78
2022/10/30 05:16:15;;;;;;;13.40;10.20;;;13.20;99.90;;;;;;2616745;54;20762;-78
2022/10/30 05:22:03;;;;;;;12.53;10.70;;;13.40;99.90;;;;;;2615775;54;20227;-78
2022/10/30 05:34:22;;;;;;;14.27;9.87;;;13.10;99.90;;;;;;2617075;54;20354;-77
2022/10/30 05:40:10;;;;;;;12.17;10.40;;;12.80;99.90;;;;;;2614906;54;20930;-79
2022/10/30 05:45:58;;;;;;;13.13;11.00;;;12.80;99.90;;;;;;2616761;54;20492;-78
2022/10/30 05:51:45;;;;;;;12.57;10.43;;;12.70;99.90;;;;;;2615714;54;20150;-78
2022/10/30 05:57:33;;;;;;;14.00;9.80;;;12.50;99.90;;;;;;2616361;54;20731;-79
2022/10/30 06:03:21;;;;;;;15.80;10.33;;;12.50;99.90;;;;;;2617076;54;20165;-79
2022/10/30 06:12:31;;;;;;;14.70;10.63;;;12.40;99.90;;;;;;2616428;39;20772;-79
2022/10/30 06:18:19;;;;;;;15.50;10.80;;;12.40;99.90;;;;;;2614699;54;20134;-79
2022/10/30 06:24:08;;;;;;;17.83;11.00;;;12.40;99.90;;;;;;2616237;54;20683;-80
2022/10/30 06:29:56;;;;;;;13.37;10.20;;;12.40;99.90;;;;;;2616784;54;20436;-80
2022/10/30 06:35:48;;;;;;;19.60;10.50;;;12.50;99.90;;;;;;2615533;54;20157;-80
2022/10/30 06:41:36;;;;;;;17.80;11.30;;;12.50;99.90;;;;;;2615331;54;20394;-78
2022/10/30 06:47:24;;;;;;;16.63;10.37;;;12.50;99.90;;;;;;2615936;54;20403;-80
2022/10/30 06:53:12;;;;;;;15.43;10.70;;;12.60;99.90;;;;;;2617373;54;20254;-80
2022/10/30 06:59:00;;;;;;;18.37;10.03;;;12.60;99.90;;;;;;2614026;54;20130;-81
2022/10/30 07:04:48;;;;;;;14.10;10.40;;;13.00;99.90;;;;;;2615422;54;20133;-76
2022/10/30 07:10:36;;;;;;;12.33;10.47;;;13.20;99.90;;;;;;2615922;54;20681;-77
2022/10/30 07:16:24;;;;;;;16.73;10.90;;;14.60;99.90;;;;;;2615254;54;20130;-78
2022/10/30 07:22:12;;;;;;;17.00;12.20;;;15.60;99.90;;;;;;2615092;54;20158;-77
2022/10/30 07:28:00;;;;;;;11.10;10.00;;;15.20;99.90;;;;;;2615768;54;20130;-78
2022/10/30 07:33:48;;;;;;;18.80;13.93;;;15.90;99.90;;;;;;2615348;54;20375;-77
2022/10/30 07:39:36;;;;;;;13.93;11.63;;;17.40;99.90;;;;;;2614932;54;20150;-77
2022/10/30 07:45:24;;;;;;;14.30;11.37;;;18.40;99.90;;;;;;2614114;54;20154;-76
2022/10/30 07:51:14;;;;;;;14.97;13.27;;;18.90;99.90;;;;;;2616479;54;20222;-77
2022/10/30 07:57:02;;;;;;;13.67;12.23;;;18.80;97.70;;;;;;2615288;54;20382;-78
2022/10/30 08:02:50;;;;;;;15.13;13.50;;;19.50;98.00;;;;;;2616165;54;20471;-78
2022/10/30 08:08:38;;;;;;;15.10;13.80;;;21.10;62.60;;;;;;2615993;54;20355;-78
2022/10/30 08:17:49;;;;;;;14.33;13.07;;;21.90;46.00;;;;;;2616252;54;20386;-78
2022/10/30 08:23:36;;;;;;;22.90;14.50;;;22.20;43.30;;;;;;2615461;54;20862;-77
2022/10/30 08:29:24;;;;;;;15.43;14.23;;;21.90;45.60;;;;;;2613086;54;20142;-79
2022/10/30 08:35:12;;;;;;;14.83;13.47;;;20.90;45.60;;;;;;2617297;54;20157;-77
2022/10/30 08:41:01;;;;;;;15.43;12.43;;;21.80;46.00;;;;;;2616899;54;20601;-78
2022/10/30 08:46:49;;;;;;;13.30;12.30;;;22.20;40.00;;;;;;2616075;54;20426;-78
2022/10/30 08:52:36;;;;;;;14.40;13.20;;;23.00;38.80;;;;;;2617246;54;20134;-78
2022/10/30 08:58:24;;;;;;;15.70;12.40;;;23.20;37.30;;;;;;2617106;54;20162;-78
2022/10/30 09:04:12;;;;;;;13.60;12.30;;;23.00;38.90;;;;;;2616721;54;20153;-78
2022/10/30 09:10:00;;;;;;;13.13;12.03;;;23.50;35.20;;;;;;2617575;39;20505;-78
2022/10/30 09:16:04;;;;;;;15.57;12.00;;;24.20;34.40;;;;;;2615844;46;20159;-78
2022/10/30 09:18:30;;;;;;;14.77;13.30;;;24.30;31.90;;;;;;2613103;47;20473;-77
2022/10/30 09:20:56;;;;;;;14.07;12.77;;;24.60;29.90;;;;;;2615721;54;20428;-78
2022/10/30 09:26:43;;;;;;;15.00;13.47;;;23.90;31.00;;;;;;2616122;54;20142;-76
2022/10/30 09:32:31;;;;;;;14.43;13.10;;;23.10;31.30;;;;;;2616369;54;20158;-76
2022/10/30 09:38:18;;;;;;;19.27;14.10;;;24.80;28.60;;;;;;2615454;54;20134;-79
2022/10/30 09:57:44;;;;;;;15.53;13.53;;;24.20;26.80;;;;;;2612798;54;20443;-79
2022/10/30 10:07:23;;;;;;;15.67;14.03;;;24.50;27.30;;;;;;2613132;54;20396;-77
2022/10/30 10:17:19;;;;;;;17.80;13.43;;;25.70;24.60;;;;;;2614098;54;20995;-80
2022/10/30 10:30:12;;;;;;;13.70;12.50;;;25.70;24.60;;;;;;2615633;54;20391;-79
2022/10/30 10:49:38;;;;;;;13.70;12.47;;;26.20;24.50;;;;;;2614684;54;20402;-79
2022/10/30 10:55:31;;;;;;;14.00;12.87;;;26.50;22.20;;;;;;2616308;54;21206;-79
2022/10/30 11:07:50;;;;;;;16.00;12.27;;;25.40;23.20;;;;;;2615814;54;20379;-77
2022/10/30 11:13:40;;;;;;;13.80;11.70;;;26.80;21.90;;;;;;2614365;54;20928;-78
2022/10/30 11:19:30;;;;;;;13.63;12.40;;;26.60;21.60;;;;;;2614360;54;20435;-78
2022/10/30 11:25:25;;;;;;;15.73;12.33;;;28.00;20.20;;;;;;2615533;54;20383;-78
2022/10/30 11:35:47;;;;;;;13.63;12.00;;;26.90;22.20;;;;;;2614274;54;20391;-82
2022/10/30 11:41:33;;;;;;;13.27;12.13;;;27.10;22.30;;;;;;2614093;54;20420;-76
2022/10/30 11:51:07;;;;;;;13.57;12.47;;;28.30;20.40;;;;;;2614144;54;20454;-80
2022/10/30 12:00:26;;;;;;;13.97;12.77;;;27.40;20.30;;;;;;2615349;54;20427;-79
2022/10/30 12:06:21;;;;;;;15.60;12.20;;;27.60;19.90;;;;;;2615488;54;20395;-80
2022/10/30 12:18:39;;;;;;;14.23;12.93;;;26.10;20.50;;;;;;2614704;54;20466;-78
2022/10/30 12:21:24;;;;;;;14.73;13.37;;;26.60;19.60;;;;;;2614782;54;20415;-78
2022/10/30 12:27:13;;;;;;;13.80;12.40;;;26.80;18.90;;;;;;2614131;54;20398;-77
2022/10/30 12:44:01;;;;;;;13.50;12.27;;;26.00;21.60;;;;;;2616268;54;20479;-78
2022/10/30 12:56:17;;;;;;;14.23;12.77;;;25.50;20.40;;;;;;2616509;54;20383;-78
2022/10/30 13:31:26;;;;;;;14.00;12.80;;;25.90;22.50;;;;;;2617011;54;20392;-78
2022/10/30 13:56:56;;;;;;;13.03;11.70;;;24.20;24.80;;;;;;2616999;54;20427;-77
2022/10/30 14:03:22;;;;;;;13.60;12.40;;;24.50;25.70;;;;;;2617036;54;20956;-77
2022/10/30 14:15:45;;;;;;;14.10;12.60;;;23.70;25.60;;;;;;2625485;54;20395;-83
2022/10/30 14:21:39;;;;;;;13.10;12.10;;;23.40;27.10;;;;;;2625060;54;20398;-83
2022/10/30 14:27:29;;;;;;;15.10;13.00;;;23.40;26.90;;;;;;2623960;54;20489;-81
2022/10/30 14:33:38;;;;;;;13.10;12.10;;;23.70;27.70;;;;;;2624848;54;20383;-86
2022/10/30 14:39:28;;;;;;;15.03;13.60;;;23.50;28.70;;;;;;2624937;54;20407;-84
2022/10/30 15:02:44;;;;;;;21.23;12.87;;;23.50;28.50;;;;;;2619570;46;20426;-78
2022/10/30 15:08:32;;;;;;;16.70;11.70;;;22.50;31.80;;;;;;2616714;54;20415;-79
2022/10/30 15:24:55;;;;;;;13.60;12.50;;;21.60;35.30;;;;;;2616450;54;21030;-80
2022/10/30 15:37:22;;;;;;;18.57;13.63;;;21.20;36.60;;;;;;2617357;54;20376;-80
2022/10/30 15:43:12;;;;;;;21.10;18.03;;;21.00;37.80;;;;;;2615665;39;20237;-81
2022/10/30 15:48:59;;;;;;;25.27;19.30;;;20.40;55.50;;;;;;2616204;46;20476;-82
2022/10/30 15:54:53;;;;;;;13.27;12.20;;;19.80;74.20;;;;;;2617274;54;20150;-82
2022/10/30 16:00:41;;;;;;;14.93;13.43;;;19.70;87.10;;;;;;2618238;54;20382;-81
2022/10/30 16:06:30;;;;;;;14.17;12.83;;;19.10;97.50;;;;;;2619383;54;20135;-82
2022/10/30 16:12:18;;;;;;;15.13;12.40;;;18.90;99.90;;;;;;2619351;39;20770;-82
2022/10/30 16:18:09;;;;;;;14.33;12.90;;;18.50;99.90;;;;;;2616719;54;20423;-81
2022/10/30 16:27:21;;;;;;;15.17;13.67;;;18.20;99.90;;;;;;2617296;54;20399;-84
2022/10/30 16:33:09;;;;;;;17.83;13.57;;;18.30;99.90;;;;;;2618889;54;20388;-83
2022/10/30 16:38:58;;;;;;;17.70;11.90;;;17.90;99.90;;;;;;2616975;54;20406;-83
2022/10/30 16:44:46;;;;;;;12.83;11.77;;;17.80;99.90;;;;;;2617027;54;20383;-84
2022/10/30 16:50:36;;;;;;;14.50;11.30;;;17.40;99.90;;;;;;2616490;54;20359;-83
2022/10/30 16:56:27;;;;;;;13.70;11.80;;;17.20;99.90;;;;;;2618658;39;20834;-82
2022/10/30 17:02:25;;;;;;;15.47;12.43;;;16.90;99.90;;;;;;2618856;54;20418;-85
2022/10/30 17:08:16;;;;;;;19.90;13.63;;;16.60;99.90;;;;;;2615943;54;20388;-78
2022/10/30 17:14:21;;;;;;;12.40;11.10;;;16.30;99.90;;;;;;2617476;54;20394;-85
2022/10/30 17:26:38;;;;;;;11.73;10.63;;;16.20;99.90;;;;;;2616930;54;20512;-81
2022/10/30 17:38:51;;;;;;;14.63;11.40;;;16.70;99.90;;;;;;2618519;46;20503;-81
2022/10/30 17:44:39;;;;;;;16.73;11.70;;;16.50;99.90;;;;;;2617934;54;20122;-83
2022/10/30 17:50:27;;;;;;;24.13;18.50;;;16.00;99.90;;;;;;2615876;54;20656;-76
2022/10/30 18:02:30;;;;;;;10.40;9.30;;;16.50;99.90;;;;;;2617080;54;20414;-82
2022/10/30 18:08:19;;;;;;;15.20;11.20;;;16.70;99.90;;;;;;2616847;54;20166;-80
2022/10/30 18:14:12;;;;;;;13.07;11.80;;;16.90;99.90;;;;;;2615945;54;20410;-77
2022/10/30 18:20:00;;;;;;;12.53;11.33;;;16.70;99.90;;;;;;2615432;54;20434;-80
2022/10/30 18:22:41;;;;;;;12.77;11.57;;;16.40;99.90;;;;;;2613089;47;20424;-78
2022/10/30 18:25:15;;;;;;;18.07;11.13;;;16.40;99.90;;;;;;2613899;54;20157;-79
2022/10/30 18:31:02;;;;;;;11.90;9.70;;;16.50;99.90;;;;;;2616868;54;20519;-83
2022/10/30 18:36:50;;;;;;;11.23;10.13;;;16.40;99.90;;;;;;2616265;54;20295;-82
2022/10/30 18:42:38;;;;;;;14.07;12.63;;;16.00;99.90;;;;;;2616353;54;20133;-83
2022/10/30 18:48:26;;;;;;;12.33;10.40;;;15.90;99.90;;;;;;2616300;39;20436;-83
2022/10/30 18:54:14;;;;;;;12.80;10.20;;;15.60;99.90;;;;;;2616577;54;20166;-82
2022/10/30 19:00:05;;;;;;;13.63;10.43;;;15.70;99.90;;;;;;2615785;54;20936;-83
2022/10/30 19:05:52;;;;;;;12.07;10.97;;;15.70;99.90;;;;;;2615395;54;20423;-80
2022/10/30 19:08:19;;;;;;;13.63;11.80;;;15.70;99.90;;;;;;2616704;39;20932;-82
2022/10/30 19:10:46;;;;;;;17.70;12.40;;;15.80;99.90;;;;;;2614636;54;20186;-83
2022/10/30 19:16:33;;;;;;;17.03;12.10;;;15.50;99.90;;;;;;2614650;54;20375;-82
2022/10/30 19:22:21;;;;;;;12.73;11.60;;;15.40;99.90;;;;;;2615729;54;20122;-82
2022/10/30 19:28:10;;;;;;;12.77;11.53;;;15.50;99.90;;;;;;2615372;54;20145;-84
2022/10/30 19:31:31;;;;;;;17.53;10.83;;;15.40;99.90;;;;;;2615674;47;20475;-80
2022/10/30 19:37:18;;;;;;;13.37;11.73;;;15.50;99.90;;;;;;2616197;54;20394;-82
2022/10/30 19:43:06;;;;;;;13.63;12.33;;;15.60;99.90;;;;;;2619026;54;20119;-82
2022/10/30 19:48:54;;;;;;;18.73;12.67;;;16.00;99.90;;;;;;2617417;54;20154;-84
2022/10/30 19:54:42;;;;;;;12.83;11.37;;;15.60;99.90;;;;;;2617826;54;20118;-83
2022/10/30 20:00:36;;;;;;;11.83;10.73;;;15.60;99.90;;;;;;2618210;39;20622;-81
2022/10/30 20:06:24;;;;;;;12.80;11.60;;;15.40;99.90;;;;;;2617200;54;20411;-83
2022/10/30 20:12:12;;;;;;;20.50;12.73;;;15.40;99.90;;;;;;2616063;54;20395;-83
2022/10/30 20:18:00;;;;;;;16.60;12.70;;;15.20;99.90;;;;;;2617342;39;21082;-84
2022/10/30 20:27:10;;;;;;;15.50;11.97;;;15.40;99.90;;;;;;2617430;54;20390;-82
2022/10/30 20:32:58;;;;;;;14.37;12.83;;;15.30;99.90;;;;;;2618975;54;20465;-84
2022/10/30 20:38:46;;;;;;;18.43;13.70;;;15.20;99.90;;;;;;2617758;54;20149;-83
2022/10/30 20:44:34;;;;;;;22.00;12.30;;;15.50;99.90;;;;;;2618477;54;20138;-83
2022/10/30 20:50:21;;;;;;;26.57;18.87;;;15.30;99.90;;;;;;2616403;54;20122;-83
2022/10/30 20:56:10;;;;;;;22.53;17.37;;;15.20;99.90;;;;;;2616462;54;20130;-83
2022/10/30 21:01:58;;;;;;;26.50;20.20;;;14.90;99.90;;;;;;2616017;54;20411;-84
2022/10/30 21:07:46;;;;;;;21.93;16.97;;;14.80;99.90;;;;;;2614952;54;20121;-85
2022/10/30 21:13:35;;;;;;;26.33;19.87;;;14.60;99.90;;;;;;2618257;54;20123;-85
2022/10/30 21:19:23;;;;;;;17.70;15.90;;;14.50;99.90;;;;;;2614297;31;20790;-78
2022/10/30 21:22:41;;;;;;;22.60;15.17;;;14.30;99.90;;;;;;2614966;54;20407;-79
2022/10/30 21:25:07;;;;;;;22.47;15.87;;;14.30;99.90;;;;;;2615538;54;20281;-80
2022/10/30 21:30:58;;;;;;;17.73;14.50;;;14.20;99.90;;;;;;2615368;54;20133;-79
2022/10/30 21:36:46;;;;;;;15.97;12.60;;;14.20;99.90;;;;;;2617878;54;20387;-81
2022/10/30 21:42:34;;;;;;;19.80;11.90;;;14.00;99.90;;;;;;2618238;54;20162;-81
2022/10/30 21:48:24;;;;;;;16.07;12.77;;;13.90;99.90;;;;;;2617231;54;20123;-81
2022/10/30 21:54:13;;;;;;;18.27;12.33;;;13.80;99.90;;;;;;2618151;54;20415;-80
2022/10/30 22:00:01;;;;;;;17.90;16.10;;;13.70;99.90;;;;;;2618616;54;20395;-81
2022/10/30 22:05:50;;;;;;;14.43;12.93;;;13.80;99.90;;;;;;2617752;54;20743;-81
2022/10/30 22:11:38;;;;;;;21.43;13.00;;;13.90;99.90;;;;;;2618232;54;20383;-80
2022/10/30 22:17:26;;;;;;;14.97;12.43;;;13.90;99.90;;;;;;2618851;39;20605;-82
2022/10/30 22:27:13;;;;;;;13.57;12.17;;;13.90;99.90;;;;;;2617414;54;20939;-80
2022/10/30 22:33:01;;;;;;;15.20;12.27;;;13.80;99.90;;;;;;2617616;54;20390;-80
2022/10/30 22:38:55;;;;;;;18.73;12.50;;;13.80;99.90;;;;;;2616649;54;20119;-80
2022/10/30 22:44:42;;;;;;;13.57;10.63;;;13.60;99.90;;;;;;2617759;54;20388;-80
2022/10/30 22:50:30;;;;;;;21.90;12.47;;;13.70;99.90;;;;;;2616935;54;20647;-80
2022/10/30 22:56:24;;;;;;;20.30;13.20;;;13.80;99.90;;;;;;2616570;54;20235;-82
2022/10/30 23:02:12;;;;;;;21.40;13.80;;;14.00;99.90;;;;;;2617127;54;20411;-80
2022/10/30 23:08:02;;;;;;;19.73;15.10;;;14.20;99.90;;;;;;2617942;54;20134;-80
2022/10/30 23:13:50;;;;;;;15.03;13.47;;;14.50;99.90;;;;;;2617028;54;20430;-81
2022/10/30 23:19:37;;;;;;;21.57;15.90;;;14.60;99.90;;;;;;2617120;54;20423;-81
2022/10/30 23:22:41;;;;;;;24.47;16.53;;;14.60;99.90;;;;;;2617493;54;20419;-80
2022/10/30 23:25:07;;;;;;;26.33;16.40;;;14.70;99.90;;;;;;2617342;47;20202;-78
2022/10/30 23:30:54;;;;;;;18.27;15.00;;;14.70;99.90;;;;;;2616653;54;20142;-78
2022/10/30 23:36:43;;;;;;;19.13;13.77;;;14.90;99.90;;;;;;2615651;54;20551;-78
2022/10/30 23:42:30;;;;;;;19.80;13.97;;;14.80;99.90;;;;;;2616358;54;20387;-76
2022/10/30 23:45:34;;;;;;;15.80;13.47;;;14.70;99.90;;;;;;2615733;47;20423;-78
2022/10/30 23:48:00;;;;;;;18.20;13.43;;;14.80;99.90;;;;;;2616603;54;20261;-78
2022/10/30 23:53:47;;;;;;;14.40;13.00;;;14.90;99.90;;;;;;2615606;54;20239;-78
2022/10/30 23:59:35;;;;;;;26.10;13.53;;;14.90;99.90;;;;;;2616137;54;20122;-79
